Time;durP1;ratioP1;P1;durP2;ratioP2;P2;SDS_P1;SDS_P2;PMS_P1;PMS_P2;Temp;Humidity;BMP_temperature;BMP_pressure;BME280_temperature;BME280_humidity;BME280_pressure;Samples;Min_cycle;Max_cycle;Signal;HPM_P1;HPM_P2
2022/05/02 00:00:24;;;;;;;10.25;6.15;;;5.00;84.20;;;;;;5024586;28;20029;-42
2022/05/02 00:02:51;;;;;;;10.02;6.90;;;5.00;84.30;;;;;;5055831;28;20102;-44
2022/05/02 00:05:18;;;;;;;9.07;7.38;;;5.00;84.20;;;;;;5045137;28;20162;-42
2022/05/02 00:07:46;;;;;;;11.07;7.90;;;5.00;84.10;;;;;;5052643;28;20090;-43
2022/05/02 00:10:14;;;;;;;9.70;6.57;;;4.90;84.20;;;;;;5054532;28;20126;-44
2022/05/02 00:12:40;;;;;;;9.20;7.70;;;4.90;84.00;;;;;;5036421;28;20025;-44
2022/05/02 00:15:08;;;;;;;9.23;6.38;;;4.90;84.30;;;;;;5049981;28;20120;-42
2022/05/02 00:20:20;;;;;;;8.32;5.90;;;4.90;84.20;;;;;;5052758;28;20099;-42
2022/05/02 00:22:47;;;;;;;7.55;5.85;;;4.90;84.20;;;;;;5053631;28;20496;-43
2022/05/02 00:25:14;;;;;;;8.30;6.28;;;4.90;84.40;;;;;;5054537;28;20467;-44
2022/05/02 00:27:45;;;;;;;6.82;5.60;;;4.80;84.30;;;;;;5051050;28;20037;-42
2022/05/02 00:30:13;;;;;;;7.80;6.03;;;4.80;84.40;;;;;;5053710;28;20033;-43
2022/05/02 00:32:40;;;;;;;9.85;5.78;;;4.80;84.40;;;;;;5054921;28;20029;-42
2022/05/02 00:35:09;;;;;;;5.50;5.00;;;4.70;84.50;;;;;;5051741;28;20080;-43
2022/05/02 00:37:37;;;;;;;6.43;5.73;;;4.70;84.60;;;;;;5035778;28;20452;-42
2022/05/02 00:40:06;;;;;;;8.05;6.63;;;4.80;84.60;;;;;;5054423;28;20113;-41
2022/05/02 00:42:33;;;;;;;6.45;5.57;;;4.80;84.60;;;;;;5053584;28;20590;-42
2022/05/02 00:45:00;;;;;;;8.05;5.88;;;4.70;84.60;;;;;;5053252;28;20434;-42
2022/05/02 00:47:26;;;;;;;7.75;6.25;;;4.80;84.70;;;;;;5050859;28;20039;-41
2022/05/02 00:49:53;;;;;;;6.78;5.35;;;4.70;84.60;;;;;;5052130;28;20108;-42
2022/05/02 00:52:20;;;;;;;8.35;6.15;;;4.70;84.60;;;;;;5052812;28;20068;-41
2022/05/02 00:54:47;;;;;;;6.80;5.88;;;4.70;84.70;;;;;;5026911;28;20022;-42
2022/05/02 00:57:15;;;;;;;6.18;5.40;;;4.60;84.70;;;;;;5023394;28;20025;-42
2022/05/02 00:59:44;;;;;;;5.68;4.57;;;4.50;84.60;;;;;;5042246;28;20025;-41
2022/05/02 01:02:14;;;;;;;6.13;5.45;;;4.50;84.90;;;;;;5054383;28;20588;-43
2022/05/02 01:04:42;;;;;;;6.85;5.22;;;4.50;84.90;;;;;;5043841;28;20124;-44
2022/05/02 01:07:12;;;;;;;6.00;5.30;;;4.50;84.60;;;;;;5041621;28;20037;-42
2022/05/02 01:09:42;;;;;;;7.78;6.65;;;4.50;84.80;;;;;;5053938;28;20476;-42
2022/05/02 01:12:14;;;;;;;6.15;5.32;;;4.50;85.00;;;;;;5068222;28;20044;-44
2022/05/02 01:14:43;;;;;;;7.70;5.97;;;4.40;84.80;;;;;;5052683;28;20025;-42
2022/05/02 01:17:10;;;;;;;6.53;5.32;;;4.40;85.00;;;;;;5052593;28;20035;-42
2022/05/02 01:19:37;;;;;;;6.72;5.57;;;4.40;85.00;;;;;;5052777;28;20053;-42
2022/05/02 01:22:06;;;;;;;6.22;5.63;;;4.40;85.00;;;;;;5048902;28;20107;-41
2022/05/02 01:24:41;;;;;;;9.35;6.43;;;4.30;84.90;;;;;;5053059;28;20041;-41
2022/05/02 01:27:09;;;;;;;6.97;6.18;;;4.30;84.80;;;;;;5052397;28;20434;-41
2022/05/02 01:29:37;;;;;;;7.55;5.78;;;4.30;85.00;;;;;;5051945;28;20362;-42
2022/05/02 01:32:07;;;;;;;6.90;5.43;;;4.20;84.90;;;;;;5051183;28;20057;-41
2022/05/02 01:34:34;;;;;;;6.70;6.00;;;4.20;84.90;;;;;;5052443;28;20039;-42
2022/05/02 01:37:03;;;;;;;7.40;5.60;;;4.20;84.90;;;;;;5035407;28;20502;-45
2022/05/02 01:39:30;;;;;;;7.03;5.95;;;4.20;85.00;;;;;;5050553;28;20033;-42
2022/05/02 01:42:01;;;;;;;6.63;5.90;;;4.20;85.20;;;;;;5053842;28;20029;-44
2022/05/02 01:44:28;;;;;;;6.68;5.65;;;4.20;85.10;;;;;;5049639;28;20029;-42
2022/05/02 01:46:56;;;;;;;7.72;6.45;;;4.20;85.50;;;;;;5053748;28;20021;-42
2022/05/02 01:49:23;;;;;;;6.88;6.18;;;4.20;85.60;;;;;;5048304;28;20343;-42
2022/05/02 01:51:49;;;;;;;6.65;5.97;;;4.20;85.60;;;;;;5052265;28;20045;-43
2022/05/02 01:54:18;;;;;;;8.20;6.18;;;4.10;85.30;;;;;;5050361;28;20074;-41
2022/05/02 01:56:45;;;;;;;6.95;5.82;;;4.20;85.50;;;;;;5053703;28;20039;-41
2022/05/02 01:59:17;;;;;;;8.95;6.38;;;4.20;85.20;;;;;;5050510;28;20036;-41
2022/05/02 02:01:44;;;;;;;7.25;6.32;;;4.10;84.90;;;;;;5049969;28;20078;-41
2022/05/02 02:06:57;;;;;;;7.22;6.47;;;4.10;85.10;;;;;;5033759;28;20524;-42
2022/05/02 02:09:24;;;;;;;7.50;6.00;;;4.00;85.00;;;;;;5047310;28;20051;-41
2022/05/02 02:11:51;;;;;;;7.10;6.40;;;3.90;84.90;;;;;;5051027;28;20032;-41
2022/05/02 02:14:18;;;;;;;8.55;6.72;;;4.00;85.30;;;;;;5053072;28;20114;-42
2022/05/02 02:16:45;;;;;;;7.07;6.32;;;4.00;85.30;;;;;;5050415;28;20025;-42
2022/05/02 02:19:12;;;;;;;6.57;5.97;;;4.00;85.40;;;;;;5050902;28;20066;-41
2022/05/02 02:21:39;;;;;;;6.50;5.63;;;4.00;85.20;;;;;;5034072;28;20036;-41
2022/05/02 02:24:06;;;;;;;7.85;6.85;;;3.90;85.00;;;;;;5050955;28;20036;-41
2022/05/02 02:26:35;;;;;;;6.07;5.38;;;3.90;85.30;;;;;;5051904;28;20349;-42
2022/05/02 02:29:03;;;;;;;7.43;6.03;;;3.90;85.30;;;;;;5051513;28;20413;-42
2022/05/02 02:31:32;;;;;;;8.10;6.15;;;3.90;85.20;;;;;;5051188;28;20056;-43
2022/05/02 02:33:59;;;;;;;8.23;6.13;;;3.90;84.80;;;;;;5051769;28;20166;-41
2022/05/02 02:36:25;;;;;;;6.80;6.10;;;3.90;85.20;;;;;;5051484;28;20033;-41
2022/05/02 02:38:52;;;;;;;7.28;6.57;;;3.90;85.10;;;;;;5037728;28;20098;-41
2022/05/02 02:41:19;;;;;;;6.85;6.15;;;3.80;85.10;;;;;;5047392;28;20036;-42
2022/05/02 02:43:46;;;;;;;6.60;5.85;;;3.80;85.00;;;;;;5050302;28;20083;-43
2022/05/02 02:46:13;;;;;;;6.60;5.82;;;3.70;85.10;;;;;;5051117;28;20036;-43
2022/05/02 02:48:39;;;;;;;6.15;5.55;;;3.80;85.10;;;;;;5033583;28;20128;-41
2022/05/02 02:51:06;;;;;;;5.97;5.18;;;3.70;85.00;;;;;;5051994;28;20108;-43
2022/05/02 02:53:32;;;;;;;8.25;6.22;;;3.70;85.00;;;;;;5051481;28;20049;-43
2022/05/02 02:55:59;;;;;;;6.20;4.78;;;3.70;85.00;;;;;;5052841;28;20070;-42
2022/05/02 02:58:25;;;;;;;5.90;5.22;;;3.70;85.10;;;;;;5055621;28;20083;-41
2022/05/02 03:00:52;;;;;;;6.50;5.53;;;3.70;85.00;;;;;;5036023;28;20473;-41
2022/05/02 03:03:18;;;;;;;8.23;6.25;;;3.80;85.20;;;;;;5049688;28;20029;-41
2022/05/02 03:06:03;;;;;;;5.20;4.60;;;3.70;85.10;;;;;;5056055;28;20470;-43
2022/05/02 03:08:33;;;;;;;7.05;4.93;;;3.70;85.00;;;;;;5044569;28;20099;-41
2022/05/02 03:11:00;;;;;;;5.07;4.25;;;3.60;84.90;;;;;;5055021;28;20104;-42
2022/05/02 03:13:30;;;;;;;6.00;4.78;;;3.60;84.90;;;;;;5055789;28;20049;-42
2022/05/02 03:16:00;;;;;;;5.68;4.88;;;3.60;85.00;;;;;;5033750;28;20048;-41
2022/05/02 03:18:27;;;;;;;5.75;5.15;;;3.50;85.00;;;;;;5038565;28;20047;-41
2022/05/02 03:20:53;;;;;;;5.35;4.55;;;3.50;85.00;;;;;;5037763;28;20032;-42
2022/05/02 03:23:20;;;;;;;5.65;4.80;;;3.50;85.20;;;;;;5035729;28;20056;-44
2022/05/02 03:25:50;;;;;;;5.10;4.43;;;3.50;85.30;;;;;;5036458;28;20076;-42
2022/05/02 03:28:17;;;;;;;6.43;4.78;;;3.50;85.40;;;;;;5055450;28;20044;-44
2022/05/02 03:30:48;;;;;;;6.30;4.45;;;3.50;85.50;;;;;;5054000;28;20021;-42
2022/05/02 03:33:15;;;;;;;8.95;4.95;;;3.60;85.60;;;;;;5055411;28;20024;-41
2022/05/02 03:35:44;;;;;;;9.50;6.22;;;3.60;85.70;;;;;;5036848;28;20033;-42
2022/05/02 03:38:10;;;;;;;5.23;4.67;;;3.60;85.60;;;;;;5053208;28;20052;-43
2022/05/02 03:40:40;;;;;;;5.57;4.40;;;3.60;85.50;;;;;;5055069;28;20287;-44
2022/05/02 03:43:06;;;;;;;6.00;4.95;;;3.60;85.60;;;;;;5069401;28;20040;-44
2022/05/02 03:45:34;;;;;;;5.03;4.20;;;3.60;85.30;;;;;;5036340;28;20047;-41
2022/05/02 03:48:01;;;;;;;7.13;4.88;;;3.50;85.40;;;;;;5049950;28;20029;-45
2022/05/02 03:50:27;;;;;;;6.50;4.03;;;3.50;85.50;;;;;;5048329;28;20025;-41
2022/05/02 03:52:54;;;;;;;5.68;4.72;;;3.60;85.60;;;;;;5030781;28;20081;-43
2022/05/02 03:55:23;;;;;;;5.68;4.28;;;3.60;85.70;;;;;;5014283;28;20030;-43
2022/05/02 03:57:52;;;;;;;5.53;4.53;;;3.60;85.90;;;;;;5014739;28;20046;-42
2022/05/02 04:00:19;;;;;;;5.68;4.43;;;3.60;85.90;;;;;;5015495;28;20041;-43
2022/05/02 04:02:46;;;;;;;5.72;4.45;;;3.60;86.00;;;;;;5014268;28;20116;-43
2022/05/02 04:05:12;;;;;;;5.38;4.20;;;3.70;85.90;;;;;;5006275;28;20084;-41
2022/05/02 04:07:39;;;;;;;6.07;5.25;;;3.70;85.80;;;;;;5013571;28;20454;-45
2022/05/02 04:10:06;;;;;;;5.95;4.90;;;3.70;86.00;;;;;;5015311;28;20473;-42
2022/05/02 04:12:37;;;;;;;5.38;4.65;;;3.80;86.00;;;;;;5014538;28;20482;-42
2022/05/02 04:15:06;;;;;;;6.07;4.95;;;3.80;86.00;;;;;;5012626;28;20022;-41
2022/05/02 04:17:33;;;;;;;5.35;4.85;;;3.80;85.70;;;;;;5014402;28;20431;-42
2022/05/02 04:20:01;;;;;;;5.45;4.75;;;3.80;85.80;;;;;;5014012;28;20174;-43
2022/05/02 04:22:28;;;;;;;5.10;4.07;;;3.80;85.80;;;;;;5014126;28;20123;-42
2022/05/02 04:24:55;;;;;;;7.10;4.35;;;3.90;85.80;;;;;;5014250;28;20033;-44
2022/05/02 04:27:24;;;;;;;6.18;4.40;;;3.90;85.70;;;;;;5013152;28;20037;-41
2022/05/02 04:29:51;;;;;;;5.22;4.10;;;3.90;85.50;;;;;;5013333;28;20061;-42
2022/05/02 04:32:18;;;;;;;7.72;4.78;;;3.90;85.40;;;;;;5013300;28;20030;-42
2022/05/02 04:34:43;;;;;;;4.68;4.18;;;4.00;85.60;;;;;;5013709;28;20044;-43
2022/05/02 04:37:10;;;;;;;5.97;4.32;;;4.10;85.40;;;;;;5012095;28;20432;-40
2022/05/02 04:39:37;;;;;;;5.45;4.53;;;4.20;85.00;;;;;;5013816;28;20022;-41
2022/05/02 04:42:07;;;;;;;5.93;4.80;;;4.40;84.80;;;;;;5013317;28;20034;-41
2022/05/02 04:44:34;;;;;;;5.57;4.07;;;4.50;84.90;;;;;;5012008;28;20109;-41
2022/05/02 04:47:01;;;;;;;7.55;5.43;;;4.50;84.50;;;;;;5013285;28;20085;-41
2022/05/02 04:49:27;;;;;;;7.18;4.75;;;4.60;84.70;;;;;;5013639;28;20034;-42
2022/05/02 04:51:53;;;;;;;6.75;4.85;;;4.80;84.70;;;;;;4976447;28;1117651;-42
2022/05/02 04:54:20;;;;;;;6.82;5.30;;;4.90;84.20;;;;;;5023449;28;20018;-41
2022/05/02 04:56:47;;;;;;;6.22;4.35;;;5.20;84.50;;;;;;5008821;28;20347;-44
2022/05/02 04:59:16;;;;;;;5.88;4.20;;;5.40;83.90;;;;;;5020710;28;20851;-43
2022/05/02 05:01:43;;;;;;;7.22;4.47;;;5.70;83.00;;;;;;5017223;28;20040;-41
2022/05/02 05:04:10;;;;;;;6.50;4.22;;;5.90;82.80;;;;;;5021535;28;20851;-42
2022/05/02 05:06:37;;;;;;;5.35;4.25;;;6.10;82.70;;;;;;5020439;28;20073;-41
2022/05/02 05:09:04;;;;;;;5.25;4.10;;;6.20;82.30;;;;;;5012865;28;20033;-41
2022/05/02 05:11:55;;;;;;;4.30;3.50;;;6.40;81.70;;;;;;5013868;28;20043;-42
2022/05/02 05:18:12;;;;;;;5.07;3.50;;;6.80;80.50;;;;;;5001435;28;20346;-41
2022/05/02 05:21:08;;;;;;;4.90;3.28;;;7.00;80.80;;;;;;4976127;28;20108;-42
2022/05/02 05:24:04;;;;;;;4.93;3.17;;;7.20;80.60;;;;;;5012857;28;20052;-42
2022/05/02 05:27:00;;;;;;;4.45;3.00;;;7.40;79.80;;;;;;5013696;28;20852;-42
2022/05/02 05:29:50;;;;;;;4.68;3.20;;;7.70;80.20;;;;;;5013175;28;20041;-42
2022/05/02 05:32:40;;;;;;;3.92;2.97;;;7.90;79.30;;;;;;5028730;28;20126;-42
2022/05/02 05:35:15;;;;;;;5.10;3.13;;;8.30;79.30;;;;;;5001009;28;20324;-42
2022/05/02 05:38:00;;;;;;;3.65;2.35;;;8.50;78.50;;;;;;5013165;28;20041;-42
2022/05/02 05:40:52;;;;;;;3.78;2.55;;;8.90;77.90;;;;;;5011886;28;20072;-45
2022/05/02 05:43:42;;;;;;;3.40;2.47;;;9.10;77.80;;;;;;5014007;28;20497;-43
2022/05/02 05:46:35;;;;;;;3.53;2.83;;;9.30;77.20;;;;;;5019198;28;20411;-42
2022/05/02 05:49:24;;;;;;;3.97;3.25;;;9.50;77.60;;;;;;4995561;28;20022;-44
2022/05/02 05:52:15;;;;;;;3.27;2.10;;;9.60;76.90;;;;;;5022242;28;20033;-41
2022/05/02 05:55:18;;;;;;;5.70;2.75;;;9.80;77.60;;;;;;5050876;28;20040;-42
2022/05/02 05:58:14;;;;;;;3.83;2.05;;;9.80;76.50;;;;;;5053366;28;20055;-44
2022/05/02 06:00:45;;;;;;;3.33;2.08;;;9.90;77.10;;;;;;5043902;28;20029;-43
2022/05/02 06:03:24;;;;;;;3.17;2.00;;;9.90;77.80;;;;;;5040331;28;20422;-43
2022/05/02 06:05:51;;;;;;;3.63;2.60;;;9.90;78.00;;;;;;5034870;28;20446;-42
2022/05/02 06:08:22;;;;;;;4.13;2.47;;;9.90;78.60;;;;;;5018091;28;21029;-44
2022/05/02 06:10:53;;;;;;;4.32;2.60;;;9.90;78.60;;;;;;5031772;28;20026;-43
2022/05/02 06:13:22;;;;;;;3.55;2.28;;;9.90;79.40;;;;;;5046780;28;20035;-42
2022/05/02 06:18:40;;;;;;;4.82;3.28;;;9.90;78.90;;;;;;5051230;28;20492;-42
2022/05/02 06:21:08;;;;;;;4.72;3.83;;;9.90;79.50;;;;;;5034506;28;20131;-43
2022/05/02 06:23:42;;;;;;;11.68;7.65;;;9.90;80.00;;;;;;5036900;28;20064;-47
2022/05/02 06:26:09;;;;;;;22.35;13.43;;;9.90;80.40;;;;;;5028475;28;20037;-43
2022/05/02 06:28:44;;;;;;;10.82;4.90;;;9.90;80.80;;;;;;5003855;28;20563;-43
2022/05/02 06:31:18;;;;;;;7.30;3.33;;;10.00;80.60;;;;;;5030384;28;20120;-46
2022/05/02 06:33:52;;;;;;;6.10;3.40;;;10.00;80.40;;;;;;5037877;28;20034;-44
2022/05/02 06:36:48;;;;;;;4.32;2.65;;;10.00;80.00;;;;;;5047115;28;20033;-43
2022/05/02 06:39:35;;;;;;;5.82;2.45;;;10.10;80.40;;;;;;5016104;28;20067;-45
2022/05/02 06:42:39;;;;;;;5.60;1.63;;;10.10;80.20;;;;;;5048553;28;20028;-45
2022/05/02 06:45:37;;;;;;;3.47;1.73;;;10.20;80.60;;;;;;5036348;28;20338;-43
2022/05/02 06:48:42;;;;;;;1.67;0.82;;;10.30;80.10;;;;;;4997090;28;20407;-43
2022/05/02 06:51:20;;;;;;;1.80;0.88;;;10.30;78.40;;;;;;5031673;28;20022;-44
2022/05/02 06:54:24;;;;;;;1.25;0.50;;;10.30;76.10;;;;;;5018071;28;20531;-46
2022/05/02 06:57:35;;;;;;;14.50;2.53;;;10.40;75.10;;;;;;5011645;28;20033;-44
2022/05/02 07:00:10;;;;;;;2.55;1.27;;;10.40;75.10;;;;;;4987518;28;20045;-43
2022/05/02 07:03:10;;;;;;;3.63;0.60;;;10.50;75.80;;;;;;4997749;28;20052;-44
2022/05/02 07:06:00;;;;;;;2.47;1.15;;;10.60;76.00;;;;;;5008083;28;20669;-43
2022/05/02 07:08:29;;;;;;;2.42;0.90;;;10.60;73.20;;;;;;5005874;28;20089;-45
2022/05/02 07:11:03;;;;;;;1.27;0.70;;;10.70;72.60;;;;;;5005475;28;20025;-44
2022/05/02 07:14:10;;;;;;;2.17;0.77;;;10.70;71.80;;;;;;5008236;28;20127;-43
2022/05/02 07:16:44;;;;;;;2.13;0.90;;;10.80;72.80;;;;;;4999532;28;20420;-44
2022/05/02 07:19:38;;;;;;;2.05;0.73;;;10.90;70.80;;;;;;5008491;28;20492;-44
2022/05/02 07:22:09;;;;;;;2.90;0.90;;;11.00;70.10;;;;;;5007811;28;20041;-46
2022/05/02 07:24:39;;;;;;;2.17;0.80;;;11.40;70.30;;;;;;5012263;28;20045;-44
2022/05/02 07:27:27;;;;;;;3.95;0.75;;;11.60;69.10;;;;;;5009698;28;20478;-44
2022/05/02 07:29:57;;;;;;;1.85;0.73;;;11.90;67.50;;;;;;5008456;28;20046;-46
2022/05/02 07:32:26;;;;;;;1.63;0.73;;;12.30;67.80;;;;;;5007952;28;20176;-45
2022/05/02 07:34:56;;;;;;;5.28;0.95;;;12.70;64.00;;;;;;5008966;28;20026;-46
2022/05/02 07:37:22;;;;;;;;;;;13.10;64.30;;;;;;5009481;28;20030;-44
2022/05/02 07:39:52;;;;;;;0.77;0.50;;;13.40;63.50;;;;;;5009178;28;19909;-45
2022/05/02 07:42:20;;;;;;;2.40;0.75;;;13.60;63.20;;;;;;4993633;28;20478;-47
2022/05/02 07:44:49;;;;;;;1.40;0.50;;;14.00;61.40;;;;;;5011584;28;20112;-45
2022/05/02 07:47:16;;;;;;;1.70;0.70;;;14.50;60.50;;;;;;5011753;28;20041;-45
2022/05/02 07:49:50;;;;;;;3.47;0.65;;;14.80;58.10;;;;;;5011190;28;20030;-47
2022/05/02 07:52:21;;;;;;;1.05;0.40;;;15.10;56.80;;;;;;5012239;28;20057;-45
2022/05/02 07:54:49;;;;;;;3.00;0.60;;;15.40;56.90;;;;;;5015059;28;20030;-46
2022/05/02 07:57:19;;;;;;;0.47;0.43;;;15.70;54.90;;;;;;5014027;28;20332;-49
2022/05/02 07:59:50;;;;;;;3.47;0.50;;;16.20;53.80;;;;;;5010677;28;20026;-44
2022/05/02 08:02:18;;;;;;;1.67;0.47;;;16.60;52.30;;;;;;5012767;28;20030;-45
2022/05/02 08:04:47;;;;;;;0.98;0.60;;;17.00;51.50;;;;;;4993181;28;20058;-45
2022/05/02 08:07:26;;;;;;;2.17;1.13;;;17.20;49.70;;;;;;5012043;28;20034;-47
2022/05/02 08:10:24;;;;;;;2.05;0.40;;;16.90;49.20;;;;;;4997036;28;20112;-46
2022/05/02 08:13:11;;;;;;;1.27;0.40;;;17.30;49.30;;;;;;5012814;28;20137;-45
2022/05/02 08:16:03;;;;;;;1.65;0.68;;;17.00;49.00;;;;;;5011991;28;20450;-46
2022/05/02 08:19:02;;;;;;;3.20;0.80;;;16.00;49.30;;;;;;5011479;28;20034;-45
2022/05/02 08:21:41;;;;;;;1.98;0.80;;;15.30;50.20;;;;;;5010430;28;20110;-46
2022/05/02 08:27:45;;;;;;;1.98;1.08;;;16.30;50.20;;;;;;5011837;28;20041;-47
2022/05/02 08:30:25;;;;;;;3.05;0.88;;;16.80;47.10;;;;;;5010864;28;20053;-46
2022/05/02 08:33:11;;;;;;;14.35;1.77;;;17.10;47.00;;;;;;5011241;28;20038;-46
2022/05/02 08:36:03;;;;;;;5.05;1.20;;;17.20;45.90;;;;;;5010021;28;20038;-46
2022/05/02 08:38:56;;;;;;;5.07;1.13;;;17.40;46.20;;;;;;5009612;28;20045;-45
2022/05/02 08:41:50;;;;;;;2.13;0.65;;;17.60;45.70;;;;;;5007551;28;20045;-48
2022/05/02 08:44:47;;;;;;;1.80;0.70;;;17.40;45.70;;;;;;5010229;28;20113;-47
2022/05/02 08:47:43;;;;;;;1.92;0.73;;;17.10;43.30;;;;;;5007671;28;20113;-46
2022/05/02 08:50:32;;;;;;;2.58;0.98;;;17.00;45.20;;;;;;5011051;28;20049;-46
2022/05/02 08:53:31;;;;;;;1.73;0.43;;;17.40;46.60;;;;;;5011573;28;20081;-47
2022/05/02 08:56:25;;;;;;;2.40;0.82;;;17.60;45.30;;;;;;5010773;28;20029;-45
2022/05/02 08:59:26;;;;;;;1.45;0.50;;;17.30;45.30;;;;;;5010207;28;20109;-47
2022/05/02 09:02:39;;;;;;;5.85;0.60;;;17.30;45.90;;;;;;4998754;28;20046;-46
2022/05/02 09:05:14;;;;;;;0.90;0.60;;;17.00;46.70;;;;;;4982107;28;20779;-45
2022/05/02 09:08:17;;;;;;;1.70;0.80;;;17.20;47.10;;;;;;4999991;28;20526;-45
2022/05/02 09:11:10;;;;;;;1.88;0.52;;;17.20;47.30;;;;;;4992262;28;20045;-45
2022/05/02 09:13:58;;;;;;;1.42;0.55;;;17.10;45.00;;;;;;5010439;28;20092;-47
2022/05/02 09:16:42;;;;;;;1.73;0.60;;;16.80;49.20;;;;;;5010634;28;20505;-49
2022/05/02 09:19:45;;;;;;;1.23;0.57;;;16.80;48.40;;;;;;5010287;28;20037;-45
2022/05/02 09:22:41;;;;;;;1.02;0.38;;;17.20;47.70;;;;;;5011076;28;20034;-46
2022/05/02 09:25:28;;;;;;;1.17;0.57;;;17.40;46.50;;;;;;5011162;28;20566;-45
2022/05/02 09:28:21;;;;;;;1.33;0.47;;;17.30;46.10;;;;;;5011414;28;20033;-44
2022/05/02 09:31:16;;;;;;;1.27;0.65;;;17.60;46.70;;;;;;5010770;28;20485;-46
2022/05/02 09:34:03;;;;;;;1.08;0.50;;;17.60;45.00;;;;;;5009708;28;20050;-46
2022/05/02 09:36:30;;;;;;;1.08;0.45;;;17.70;44.30;;;;;;5009154;28;20061;-45
2022/05/02 09:39:15;;;;;;;1.38;0.50;;;17.70;44.10;;;;;;5010238;28;20041;-45
2022/05/02 09:41:59;;;;;;;1.45;0.50;;;17.40;42.90;;;;;;5012599;28;20045;-46
2022/05/02 09:51:31;;;;;;;1.30;0.52;;;17.20;42.30;;;;;;5012229;28;20510;-48
2022/05/02 09:54:04;;;;;;;1.33;0.55;;;17.30;42.20;;;;;;5010355;28;20117;-46
2022/05/02 09:56:39;;;;;;;2.50;0.77;;;17.10;43.90;;;;;;5012771;28;20033;-46
2022/05/02 09:59:10;;;;;;;2.15;0.63;;;17.20;46.00;;;;;;5010066;28;20140;-48
2022/05/02 10:02:09;;;;;;;3.53;0.90;;;17.40;43.00;;;;;;5008849;28;20030;-48
2022/05/02 10:04:54;;;;;;;;;;;17.40;43.40;;;;;;5009599;28;20653;-45
2022/05/02 10:07:25;;;;;;;1.23;0.50;;;17.60;45.30;;;;;;5008424;28;20313;-48
2022/05/02 10:10:27;;;;;;;6.15;0.82;;;17.30;45.30;;;;;;5007395;28;20030;-45
2022/05/02 10:13:20;;;;;;;2.42;0.68;;;17.40;44.90;;;;;;5011309;28;20037;-46
2022/05/02 10:16:14;;;;;;;3.45;1.00;;;17.40;45.60;;;;;;5012750;28;20690;-45
2022/05/02 10:18:57;;;;;;;2.13;0.98;;;17.10;46.90;;;;;;5011660;28;20455;-48
2022/05/02 10:21:48;;;;;;;1.80;1.00;;;17.20;48.20;;;;;;4994905;28;20427;-50
2022/05/02 10:25:12;;;;;;;3.15;0.90;;;17.40;46.10;;;;;;5011697;28;20032;-45
2022/05/02 10:28:02;;;;;;;2.70;1.10;;;17.40;46.90;;;;;;4950144;28;20053;-47
2022/05/02 10:30:41;;;;;;;2.35;1.13;;;17.50;45.50;;;;;;4937813;28;20027;-48
2022/05/02 10:33:14;;;;;;;3.23;1.00;;;17.40;45.50;;;;;;4996857;28;20754;-45
2022/05/02 10:35:45;;;;;;;1.40;0.82;;;17.30;44.40;;;;;;4998351;28;20144;-49
2022/05/02 10:38:19;;;;;;;3.33;0.90;;;17.20;44.50;;;;;;5008853;28;20440;-46
2022/05/02 10:40:50;;;;;;;1.33;0.50;;;16.90;47.50;;;;;;5009663;28;20481;-47
2022/05/02 10:43:26;;;;;;;2.22;0.80;;;16.90;45.90;;;;;;5008507;28;20079;-48
2022/05/02 10:45:52;;;;;;;1.70;0.60;;;16.90;47.10;;;;;;5008725;28;20355;-46
2022/05/02 10:48:29;;;;;;;1.58;0.63;;;17.10;46.60;;;;;;5009110;28;20022;-46
2022/05/02 10:51:16;;;;;;;1.75;0.60;;;17.30;46.40;;;;;;5008106;28;20037;-46
2022/05/02 10:54:00;;;;;;;3.63;0.60;;;17.10;45.50;;;;;;5009204;28;20099;-45
2022/05/02 10:56:28;;;;;;;2.53;0.80;;;17.30;45.80;;;;;;5007765;28;20034;-46
2022/05/02 10:59:00;;;;;;;3.03;0.60;;;17.00;45.60;;;;;;5009235;28;20461;-46
2022/05/02 11:02:18;;;;;;;1.50;0.60;;;17.00;44.20;;;;;;5008913;28;20459;-46
2022/05/02 11:05:11;;;;;;;3.53;0.75;;;17.00;47.50;;;;;;4984440;28;20037;-46
2022/05/02 11:07:58;;;;;;;2.78;0.60;;;17.00;48.80;;;;;;5009597;28;20060;-45
2022/05/02 11:10:43;;;;;;;3.08;0.73;;;17.20;46.60;;;;;;5010084;28;20087;-45
2022/05/02 11:13:47;;;;;;;3.38;0.85;;;16.90;45.10;;;;;;5008702;28;20026;-46
2022/05/02 11:16:28;;;;;;;2.92;0.63;;;16.70;44.20;;;;;;4976820;28;20108;-47
2022/05/02 11:22:36;;;;;;;0.98;0.50;;;16.20;41.00;;;;;;4996577;28;20049;-46
2022/05/02 11:25:27;;;;;;;2.33;0.50;;;16.10;43.60;;;;;;4995545;28;20045;-49
2022/05/02 11:28:29;;;;;;;3.42;0.60;;;16.00;42.50;;;;;;5012445;28;20481;-45
2022/05/02 11:31:32;;;;;;;6.82;1.15;;;16.00;44.00;;;;;;5011115;28;20058;-45
2022/05/02 11:34:32;;;;;;;0.55;0.30;;;15.90;46.10;;;;;;5006512;28;20030;-46
2022/05/02 11:37:00;;;;;;;1.92;0.50;;;15.80;46.20;;;;;;5010760;28;20096;-50
2022/05/02 11:39:47;;;;;;;1.70;0.63;;;15.90;46.00;;;;;;5012041;28;20030;-48
2022/05/02 11:42:18;;;;;;;2.13;0.80;;;16.10;46.70;;;;;;5009850;28;20029;-46
2022/05/02 11:45:14;;;;;;;3.42;0.88;;;16.20;48.00;;;;;;4995339;28;20112;-50
2022/05/02 11:47:55;;;;;;;1.95;0.77;;;16.00;46.20;;;;;;5010667;28;20034;-48
2022/05/02 11:50:25;;;;;;;1.38;0.85;;;15.80;47.10;;;;;;5011315;28;20124;-49
2022/05/02 11:52:57;;;;;;;1.35;0.50;;;15.80;44.60;;;;;;5029724;28;20061;-51
2022/05/02 11:55:30;;;;;;;0.40;0.30;;;15.70;46.80;;;;;;5033180;28;20029;-47
2022/05/02 11:58:09;;;;;;;3.63;0.50;;;15.60;45.50;;;;;;5033942;28;20033;-49
2022/05/02 12:00:37;;;;;;;1.13;0.60;;;15.50;46.10;;;;;;5015717;28;20516;-46
2022/05/02 12:03:18;;;;;;;3.67;0.90;;;15.70;45.60;;;;;;5004487;28;20041;-47
2022/05/02 12:06:04;;;;;;;2.42;0.60;;;15.70;44.10;;;;;;5047400;28;20107;-48
2022/05/02 12:08:37;;;;;;;1.30;0.60;;;15.60;48.30;;;;;;5034095;28;20037;-47
2022/05/02 12:11:11;;;;;;;2.20;0.63;;;15.40;46.60;;;;;;5032405;28;20037;-45
2022/05/02 12:13:45;;;;;;;1.65;0.50;;;15.50;45.70;;;;;;5031132;28;20392;-45
2022/05/02 12:16:33;;;;;;;1.60;0.52;;;15.40;45.70;;;;;;5030704;28;20032;-47
2022/05/02 12:19:08;;;;;;;2.47;0.60;;;15.40;45.60;;;;;;5032091;28;20021;-47
2022/05/02 12:21:55;;;;;;;1.45;0.63;;;15.40;46.20;;;;;;5047567;28;20029;-49
2022/05/02 12:24:33;;;;;;;2.88;0.55;;;15.50;45.70;;;;;;5031409;28;20048;-52
2022/05/02 12:27:06;;;;;;;1.33;0.40;;;15.50;44.20;;;;;;5036534;28;20079;-47
2022/05/02 12:29:42;;;;;;;1.77;0.55;;;15.30;42.90;;;;;;5033128;28;20574;-48
2022/05/02 12:32:14;;;;;;;1.10;0.50;;;15.30;42.50;;;;;;5047725;28;20033;-48
2022/05/02 12:34:52;;;;;;;0.38;0.30;;;15.10;40.50;;;;;;5034697;28;20120;-49
2022/05/02 12:37:39;;;;;;;1.75;0.52;;;15.00;40.50;;;;;;5027410;28;20332;-45
2022/05/02 12:40:18;;;;;;;0.60;0.40;;;15.10;39.70;;;;;;5033109;28;20029;-48
2022/05/02 12:43:03;;;;;;;1.27;0.47;;;15.10;40.70;;;;;;5024592;28;20047;-49
2022/05/02 12:45:43;;;;;;;2.40;0.47;;;15.00;39.30;;;;;;5032031;28;20454;-46
2022/05/02 12:48:28;;;;;;;0.90;0.28;;;14.90;40.80;;;;;;5029662;28;20728;-45
2022/05/02 12:51:00;;;;;;;1.95;0.50;;;14.90;41.90;;;;;;5028197;28;20121;-47
2022/05/02 12:56:15;;;;;;;2.00;0.45;;;14.90;47.40;;;;;;5010982;28;20177;-49
2022/05/02 13:01:49;;;;;;;0.47;0.38;;;14.60;44.70;;;;;;5014509;28;20072;-46
2022/05/02 13:04:18;;;;;;;1.92;0.75;;;14.60;45.30;;;;;;5003157;28;20026;-48
2022/05/02 13:06:45;;;;;;;0.83;0.50;;;14.60;48.50;;;;;;5022711;28;20092;-46
2022/05/02 13:09:19;;;;;;;1.17;0.38;;;14.70;47.10;;;;;;5009063;28;20080;-47
2022/05/02 13:11:46;;;;;;;0.88;0.40;;;14.50;42.70;;;;;;4998260;28;20026;-46
2022/05/02 13:14:22;;;;;;;1.33;0.60;;;14.50;43.10;;;;;;5040905;28;20391;-50
2022/05/02 13:16:52;;;;;;;1.85;0.60;;;14.40;45.80;;;;;;5033147;28;20057;-48
2022/05/02 13:19:33;;;;;;;1.10;0.40;;;14.30;46.80;;;;;;5013749;28;20038;-47
2022/05/02 13:22:00;;;;;;;1.55;0.98;;;14.20;46.60;;;;;;5013500;28;20037;-51
2022/05/02 13:24:27;;;;;;;2.53;0.60;;;14.10;50.20;;;;;;5012649;28;20542;-47
2022/05/02 13:27:25;;;;;;;1.52;0.60;;;14.10;50.60;;;;;;5013481;28;20106;-50
2022/05/02 13:30:12;;;;;;;0.40;0.40;;;14.00;50.10;;;;;;5013065;28;20042;-48
2022/05/02 13:33:06;;;;;;;1.85;0.73;;;14.20;46.60;;;;;;5030337;28;20466;-49
2022/05/02 13:35:36;;;;;;;2.00;0.55;;;14.20;48.60;;;;;;5013671;28;20033;-52
2022/05/02 13:38:14;;;;;;;2.92;0.50;;;14.20;51.00;;;;;;5040925;28;20153;-48
2022/05/02 13:41:16;;;;;;;1.73;0.57;;;14.20;46.20;;;;;;5029624;28;20045;-49
2022/05/02 13:44:04;;;;;;;1.65;0.70;;;14.10;47.80;;;;;;5007911;28;20529;-46
2022/05/02 13:46:44;;;;;;;1.42;0.50;;;13.90;52.00;;;;;;5013605;28;20112;-49
2022/05/02 13:49:23;;;;;;;;;;;13.80;49.20;;;;;;5013710;28;20605;-46
2022/05/02 13:52:15;;;;;;;2.05;0.40;;;13.90;51.80;;;;;;5030581;28;22040;-47
2022/05/02 13:54:52;;;;;;;3.08;0.80;;;13.90;49.60;;;;;;5012525;28;20076;-47
2022/05/02 13:57:32;;;;;;;1.65;0.43;;;13.90;51.20;;;;;;5011649;28;20038;-50
2022/05/02 14:03:32;;;;;;;1.25;0.40;;;13.60;49.00;;;;;;5015235;28;20038;-46
2022/05/02 14:06:00;;;;;;;1.55;0.80;;;13.70;46.80;;;;;;5032164;28;20041;-47
2022/05/02 14:08:42;;;;;;;0.40;0.40;;;13.70;46.70;;;;;;4998028;28;20113;-47
2022/05/02 14:11:16;;;;;;;1.75;0.73;;;13.80;49.60;;;;;;5011365;28;20053;-45
2022/05/02 14:13:44;;;;;;;2.33;1.02;;;13.90;49.30;;;;;;5006956;28;20092;-48
2022/05/02 14:16:11;;;;;;;1.75;0.50;;;13.90;51.80;;;;;;5003589;28;20021;-45